sensor_id;sensor_type;location;lat;lon;timestamp;P1;durP1;ratioP1;P2;durP2;ratioP2
44822;SDS011;51097;51.984;5.650;2023-07-20T00:01:22;10.82;;;8.48;;
44822;SDS011;51097;51.984;5.650;2023-07-20T00:03:48;12.68;;;8.65;;
44822;SDS011;51097;51.984;5.650;2023-07-20T00:06:23;10.68;;;9.25;;
44822;SDS011;51097;51.984;5.650;2023-07-20T00:08:54;9.77;;;8.77;;
44822;SDS011;51097;51.984;5.650;2023-07-20T00:11:20;11.10;;;9.50;;
44822;SDS011;51097;51.984;5.650;2023-07-20T00:13:46;10.13;;;9.13;;
44822;SDS011;51097;51.984;5.650;2023-07-20T00:16:12;11.20;;;9.63;;
44822;SDS011;51097;51.984;5.650;2023-07-20T00:18:38;11.60;;;9.60;;
44822;SDS011;51097;51.984;5.650;2023-07-20T00:21:03;12.07;;;9.73;;
44822;SDS011;51097;51.984;5.650;2023-07-20T00:23:29;10.68;;;8.77;;
44822;SDS011;51097;51.984;5.650;2023-07-20T00:25:55;9.50;;;8.13;;
44822;SDS011;51097;51.984;5.650;2023-07-20T00:28:20;11.73;;;9.02;;
44822;SDS011;51097;51.984;5.650;2023-07-20T00:30:46;10.35;;;8.95;;
44822;SDS011;51097;51.984;5.650;2023-07-20T00:33:11;9.05;;;8.10;;
44822;SDS011;51097;51.984;5.650;2023-07-20T00:35:38;13.98;;;9.40;;
44822;SDS011;51097;51.984;5.650;2023-07-20T00:38:04;10.77;;;9.02;;
44822;SDS011;51097;51.984;5.650;2023-07-20T00:40:36;10.60;;;9.60;;
44822;SDS011;51097;51.984;5.650;2023-07-20T00:43:02;9.98;;;8.38;;
44822;SDS011;51097;51.984;5.650;2023-07-20T00:45:29;12.48;;;9.18;;
44822;SDS011;51097;51.984;5.650;2023-07-20T00:47:54;10.68;;;8.55;;
44822;SDS011;51097;51.984;5.650;2023-07-20T00:50:20;11.27;;;8.60;;
44822;SDS011;51097;51.984;5.650;2023-07-20T00:52:46;8.02;;;7.22;;
44822;SDS011;51097;51.984;5.650;2023-07-20T00:55:12;8.75;;;7.57;;
44822;SDS011;51097;51.984;5.650;2023-07-20T00:57:38;8.13;;;7.30;;
44822;SDS011;51097;51.984;5.650;2023-07-20T01:00:04;9.60;;;7.70;;
44822;SDS011;51097;51.984;5.650;2023-07-20T01:02:31;8.93;;;8.10;;
44822;SDS011;51097;51.984;5.650;2023-07-20T01:04:57;9.07;;;8.25;;
44822;SDS011;51097;51.984;5.650;2023-07-20T01:07:31;8.98;;;8.07;;
44822;SDS011;51097;51.984;5.650;2023-07-20T01:12:45;7.40;;;5.82;;
44822;SDS011;51097;51.984;5.650;2023-07-20T01:15:12;8.20;;;7.40;;
44822;SDS011;51097;51.984;5.650;2023-07-20T01:17:39;7.75;;;7.05;;
44822;SDS011;51097;51.984;5.650;2023-07-20T01:20:08;7.57;;;6.88;;
44822;SDS011;51097;51.984;5.650;2023-07-20T01:22:47;6.90;;;6.20;;
44822;SDS011;51097;51.984;5.650;2023-07-20T01:28:37;9.20;;;6.68;;
44822;SDS011;51097;51.984;5.650;2023-07-20T01:33:05;7.07;;;6.28;;
44822;SDS011;51097;51.984;5.650;2023-07-20T01:35:33;7.85;;;5.47;;
44822;SDS011;51097;51.984;5.650;2023-07-20T01:38:00;6.05;;;5.55;;
44822;SDS011;51097;51.984;5.650;2023-07-20T01:40:26;6.50;;;5.90;;
44822;SDS011;51097;51.984;5.650;2023-07-20T01:42:52;6.72;;;5.70;;
44822;SDS011;51097;51.984;5.650;2023-07-20T01:45:18;7.28;;;6.25;;
44822;SDS011;51097;51.984;5.650;2023-07-20T01:47:44;6.45;;;5.88;;
44822;SDS011;51097;51.984;5.650;2023-07-20T01:50:10;5.15;;;4.65;;
44822;SDS011;51097;51.984;5.650;2023-07-20T01:52:35;5.95;;;5.07;;
44822;SDS011;51097;51.984;5.650;2023-07-20T01:55:01;5.63;;;5.13;;
44822;SDS011;51097;51.984;5.650;2023-07-20T01:57:26;4.72;;;4.25;;
44822;SDS011;51097;51.984;5.650;2023-07-20T01:59:52;5.43;;;4.93;;
44822;SDS011;51097;51.984;5.650;2023-07-20T02:02:18;5.90;;;5.28;;
44822;SDS011;51097;51.984;5.650;2023-07-20T02:04:45;5.80;;;5.30;;
44822;SDS011;51097;51.984;5.650;2023-07-20T02:07:11;5.50;;;5.00;;
44822;SDS011;51097;51.984;5.650;2023-07-20T02:09:36;5.30;;;4.70;;
44822;SDS011;51097;51.984;5.650;2023-07-20T02:12:02;4.53;;;4.13;;
44822;SDS011;51097;51.984;5.650;2023-07-20T02:14:27;4.97;;;4.55;;
44822;SDS011;51097;51.984;5.650;2023-07-20T02:16:53;6.50;;;4.95;;
44822;SDS011;51097;51.984;5.650;2023-07-20T02:19:24;5.18;;;4.70;;
44822;SDS011;51097;51.984;5.650;2023-07-20T02:21:50;5.35;;;4.30;;
44822;SDS011;51097;51.984;5.650;2023-07-20T02:24:16;5.20;;;4.70;;
44822;SDS011;51097;51.984;5.650;2023-07-20T02:26:41;4.65;;;4.20;;
44822;SDS011;51097;51.984;5.650;2023-07-20T02:29:07;5.35;;;4.85;;
44822;SDS011;51097;51.984;5.650;2023-07-20T02:31:33;5.15;;;4.68;;
44822;SDS011;51097;51.984;5.650;2023-07-20T02:33:59;5.40;;;4.38;;
44822;SDS011;51097;51.984;5.650;2023-07-20T02:36:24;5.45;;;4.95;;
44822;SDS011;51097;51.984;5.650;2023-07-20T02:38:50;6.15;;;5.47;;
44822;SDS011;51097;51.984;5.650;2023-07-20T02:41:15;5.72;;;5.22;;
44822;SDS011;51097;51.984;5.650;2023-07-20T02:43:41;5.82;;;4.78;;
44822;SDS011;51097;51.984;5.650;2023-07-20T02:46:06;5.32;;;4.82;;
44822;SDS011;51097;51.984;5.650;2023-07-20T02:48:32;5.18;;;4.72;;
44822;SDS011;51097;51.984;5.650;2023-07-20T02:50:58;4.70;;;4.20;;
44822;SDS011;51097;51.984;5.650;2023-07-20T02:53:23;6.25;;;5.38;;
44822;SDS011;51097;51.984;5.650;2023-07-20T02:55:49;4.88;;;4.47;;
44822;SDS011;51097;51.984;5.650;2023-07-20T02:58:14;5.18;;;4.68;;
44822;SDS011;51097;51.984;5.650;2023-07-20T03:00:41;7.60;;;4.65;;
44822;SDS011;51097;51.984;5.650;2023-07-20T03:03:07;7.50;;;6.80;;
44822;SDS011;51097;51.984;5.650;2023-07-20T03:05:34;6.82;;;5.97;;
44822;SDS011;51097;51.984;5.650;2023-07-20T03:08:00;6.90;;;5.82;;
44822;SDS011;51097;51.984;5.650;2023-07-20T03:10:28;7.85;;;6.30;;
44822;SDS011;51097;51.984;5.650;2023-07-20T03:12:54;6.10;;;5.60;;
44822;SDS011;51097;51.984;5.650;2023-07-20T03:15:19;8.30;;;6.50;;
44822;SDS011;51097;51.984;5.650;2023-07-20T03:17:45;6.53;;;5.95;;
44822;SDS011;51097;51.984;5.650;2023-07-20T03:20:10;7.38;;;6.45;;
44822;SDS011;51097;51.984;5.650;2023-07-20T03:22:37;6.53;;;5.82;;
44822;SDS011;51097;51.984;5.650;2023-07-20T03:25:03;7.22;;;6.57;;
44822;SDS011;51097;51.984;5.650;2023-07-20T03:27:29;7.35;;;5.88;;
44822;SDS011;51097;51.984;5.650;2023-07-20T03:29:55;6.78;;;5.85;;
44822;SDS011;51097;51.984;5.650;2023-07-20T03:32:20;5.72;;;5.18;;
44822;SDS011;51097;51.984;5.650;2023-07-20T03:34:46;5.70;;;5.07;;
44822;SDS011;51097;51.984;5.650;2023-07-20T03:37:12;5.60;;;5.10;;
44822;SDS011;51097;51.984;5.650;2023-07-20T03:39:38;6.18;;;5.47;;
44822;SDS011;51097;51.984;5.650;2023-07-20T03:42:03;7.20;;;6.03;;
44822;SDS011;51097;51.984;5.650;2023-07-20T03:44:30;6.57;;;5.93;;
44822;SDS011;51097;51.984;5.650;2023-07-20T03:46:55;5.75;;;5.22;;
44822;SDS011;51097;51.984;5.650;2023-07-20T03:49:21;4.63;;;4.22;;
44822;SDS011;51097;51.984;5.650;2023-07-20T03:51:47;6.03;;;5.40;;
44822;SDS011;51097;51.984;5.650;2023-07-20T03:54:12;4.85;;;4.45;;
44822;SDS011;51097;51.984;5.650;2023-07-20T03:56:38;4.68;;;4.28;;
44822;SDS011;51097;51.984;5.650;2023-07-20T03:59:04;5.70;;;5.10;;
44822;SDS011;51097;51.984;5.650;2023-07-20T04:01:29;5.30;;;4.80;;
44822;SDS011;51097;51.984;5.650;2023-07-20T04:03:55;6.93;;;6.03;;
44822;SDS011;51097;51.984;5.650;2023-07-20T04:06:21;4.80;;;4.40;;
44822;SDS011;51097;51.984;5.650;2023-07-20T04:08:47;7.15;;;5.22;;
44822;SDS011;51097;51.984;5.650;2023-07-20T04:11:12;5.05;;;4.55;;
44822;SDS011;51097;51.984;5.650;2023-07-20T04:13:38;6.78;;;5.50;;
44822;SDS011;51097;51.984;5.650;2023-07-20T04:16:04;4.82;;;4.43;;
44822;SDS011;51097;51.984;5.650;2023-07-20T04:18:30;5.43;;;4.93;;
44822;SDS011;51097;51.984;5.650;2023-07-20T04:20:55;6.07;;;4.78;;
44822;SDS011;51097;51.984;5.650;2023-07-20T04:23:21;6.05;;;5.45;;
44822;SDS011;51097;51.984;5.650;2023-07-20T04:25:47;6.07;;;5.47;;
44822;SDS011;51097;51.984;5.650;2023-07-20T04:28:12;5.85;;;4.85;;
44822;SDS011;51097;51.984;5.650;2023-07-20T04:30:38;5.70;;;5.20;;
44822;SDS011;51097;51.984;5.650;2023-07-20T04:33:05;6.75;;;6.05;;
44822;SDS011;51097;51.984;5.650;2023-07-20T04:35:50;5.75;;;5.25;;
44822;SDS011;51097;51.984;5.650;2023-07-20T04:38:15;5.57;;;5.07;;
44822;SDS011;51097;51.984;5.650;2023-07-20T04:40:43;5.80;;;5.18;;
44822;SDS011;51097;51.984;5.650;2023-07-20T04:43:09;6.75;;;4.97;;
44822;SDS011;51097;51.984;5.650;2023-07-20T04:45:35;6.18;;;5.43;;
44822;SDS011;51097;51.984;5.650;2023-07-20T04:48:00;7.57;;;6.05;;
44822;SDS011;51097;51.984;5.650;2023-07-20T04:50:26;5.30;;;4.90;;
44822;SDS011;51097;51.984;5.650;2023-07-20T04:52:51;7.03;;;6.32;;
44822;SDS011;51097;51.984;5.650;2023-07-20T04:55:18;6.13;;;5.63;;
44822;SDS011;51097;51.984;5.650;2023-07-20T04:57:43;8.35;;;6.07;;
44822;SDS011;51097;51.984;5.650;2023-07-20T05:00:09;8.38;;;6.10;;
44822;SDS011;51097;51.984;5.650;2023-07-20T05:02:36;7.78;;;6.70;;
44822;SDS011;51097;51.984;5.650;2023-07-20T05:05:03;7.25;;;6.35;;
44822;SDS011;51097;51.984;5.650;2023-07-20T05:07:30;6.85;;;6.22;;
44822;SDS011;51097;51.984;5.650;2023-07-20T05:09:56;6.85;;;6.15;;
44822;SDS011;51097;51.984;5.650;2023-07-20T05:12:22;7.00;;;6.28;;
44822;SDS011;51097;51.984;5.650;2023-07-20T05:14:48;6.20;;;5.68;;
44822;SDS011;51097;51.984;5.650;2023-07-20T05:17:13;8.15;;;5.78;;
44822;SDS011;51097;51.984;5.650;2023-07-20T05:19:39;7.03;;;5.82;;
44822;SDS011;51097;51.984;5.650;2023-07-20T05:22:05;6.53;;;5.88;;
44822;SDS011;51097;51.984;5.650;2023-07-20T05:24:30;6.47;;;5.88;;
44822;SDS011;51097;51.984;5.650;2023-07-20T05:26:57;6.45;;;5.85;;
44822;SDS011;51097;51.984;5.650;2023-07-20T05:29:23;7.50;;;6.07;;
44822;SDS011;51097;51.984;5.650;2023-07-20T05:31:49;7.45;;;6.63;;
44822;SDS011;51097;51.984;5.650;2023-07-20T05:34:14;7.18;;;6.47;;
44822;SDS011;51097;51.984;5.650;2023-07-20T05:36:40;6.60;;;5.95;;
44822;SDS011;51097;51.984;5.650;2023-07-20T05:39:06;8.20;;;6.10;;
44822;SDS011;51097;51.984;5.650;2023-07-20T05:41:31;10.77;;;6.97;;
44822;SDS011;51097;51.984;5.650;2023-07-20T05:43:57;8.30;;;6.05;;
44822;SDS011;51097;51.984;5.650;2023-07-20T05:46:22;7.43;;;6.03;;
44822;SDS011;51097;51.984;5.650;2023-07-20T05:48:49;7.47;;;6.13;;
44822;SDS011;51097;51.984;5.650;2023-07-20T05:51:15;8.68;;;7.53;;
44822;SDS011;51097;51.984;5.650;2023-07-20T05:53:40;6.75;;;5.60;;
44822;SDS011;51097;51.984;5.650;2023-07-20T05:56:06;6.07;;;5.45;;
44822;SDS011;51097;51.984;5.650;2023-07-20T05:58:35;7.00;;;6.30;;
44822;SDS011;51097;51.984;5.650;2023-07-20T06:01:01;8.80;;;6.80;;
44822;SDS011;51097;51.984;5.650;2023-07-20T06:03:27;7.88;;;6.47;;
44822;SDS011;51097;51.984;5.650;2023-07-20T06:05:57;8.95;;;7.03;;
44822;SDS011;51097;51.984;5.650;2023-07-20T06:08:30;7.18;;;6.47;;
44822;SDS011;51097;51.984;5.650;2023-07-20T06:10:56;8.50;;;6.80;;
44822;SDS011;51097;51.984;5.650;2023-07-20T06:13:22;8.50;;;7.00;;
44822;SDS011;51097;51.984;5.650;2023-07-20T06:15:48;9.43;;;7.05;;
44822;SDS011;51097;51.984;5.650;2023-07-20T06:18:14;8.30;;;7.00;;
44822;SDS011;51097;51.984;5.650;2023-07-20T06:20:40;8.80;;;6.95;;
44822;SDS011;51097;51.984;5.650;2023-07-20T06:23:05;8.65;;;7.15;;
44822;SDS011;51097;51.984;5.650;2023-07-20T06:25:32;7.72;;;6.95;;
44822;SDS011;51097;51.984;5.650;2023-07-20T06:27:57;9.27;;;7.78;;
44822;SDS011;51097;51.984;5.650;2023-07-20T06:30:23;6.90;;;6.22;;
44822;SDS011;51097;51.984;5.650;2023-07-20T06:32:49;8.38;;;6.75;;
44822;SDS011;51097;51.984;5.650;2023-07-20T06:35:15;7.93;;;7.20;;
44822;SDS011;51097;51.984;5.650;2023-07-20T06:37:41;7.88;;;7.18;;
44822;SDS011;51097;51.984;5.650;2023-07-20T06:40:07;7.47;;;6.57;;
44822;SDS011;51097;51.984;5.650;2023-07-20T06:42:36;8.47;;;6.70;;
44822;SDS011;51097;51.984;5.650;2023-07-20T06:45:02;7.10;;;6.40;;
44822;SDS011;51097;51.984;5.650;2023-07-20T06:47:27;7.65;;;6.82;;
44822;SDS011;51097;51.984;5.650;2023-07-20T06:49:53;8.15;;;6.80;;
44822;SDS011;51097;51.984;5.650;2023-07-20T06:52:19;6.60;;;5.95;;
44822;SDS011;51097;51.984;5.650;2023-07-20T06:54:44;6.65;;;6.05;;
44822;SDS011;51097;51.984;5.650;2023-07-20T06:57:10;7.00;;;5.15;;
44822;SDS011;51097;51.984;5.650;2023-07-20T06:59:35;6.30;;;5.75;;
44822;SDS011;51097;51.984;5.650;2023-07-20T07:02:01;5.13;;;4.63;;
44822;SDS011;51097;51.984;5.650;2023-07-20T07:04:26;4.78;;;4.38;;
44822;SDS011;51097;51.984;5.650;2023-07-20T07:06:52;5.40;;;4.90;;
44822;SDS011;51097;51.984;5.650;2023-07-20T07:09:18;4.70;;;4.30;;
44822;SDS011;51097;51.984;5.650;2023-07-20T07:11:43;4.07;;;3.13;;
44822;SDS011;51097;51.984;5.650;2023-07-20T07:14:09;3.92;;;3.47;;
44822;SDS011;51097;51.984;5.650;2023-07-20T07:16:36;4.30;;;3.90;;
44822;SDS011;51097;51.984;5.650;2023-07-20T07:19:02;5.03;;;4.20;;
44822;SDS011;51097;51.984;5.650;2023-07-20T07:21:28;4.28;;;3.80;;
44822;SDS011;51097;51.984;5.650;2023-07-20T07:23:54;5.50;;;4.45;;
44822;SDS011;51097;51.984;5.650;2023-07-20T07:26:22;4.13;;;3.72;;
44822;SDS011;51097;51.984;5.650;2023-07-20T07:28:48;4.00;;;3.20;;
44822;SDS011;51097;51.984;5.650;2023-07-20T07:31:14;4.15;;;2.90;;
44822;SDS011;51097;51.984;5.650;2023-07-20T07:33:40;3.85;;;3.05;;
44822;SDS011;51097;51.984;5.650;2023-07-20T07:36:05;4.35;;;3.30;;
44822;SDS011;51097;51.984;5.650;2023-07-20T07:38:31;2.53;;;1.55;;
44822;SDS011;51097;51.984;5.650;2023-07-20T07:40:57;1.65;;;1.13;;
44822;SDS011;51097;51.984;5.650;2023-07-20T07:43:23;3.08;;;1.48;;
44822;SDS011;51097;51.984;5.650;2023-07-20T07:45:49;1.50;;;1.38;;
44822;SDS011;51097;51.984;5.650;2023-07-20T07:48:15;2.15;;;1.40;;
44822;SDS011;51097;51.984;5.650;2023-07-20T07:50:40;2.80;;;1.80;;
44822;SDS011;51097;51.984;5.650;2023-07-20T07:53:07;2.05;;;1.83;;
44822;SDS011;51097;51.984;5.650;2023-07-20T07:55:33;2.20;;;1.98;;
44822;SDS011;51097;51.984;5.650;2023-07-20T07:57:59;2.15;;;1.80;;
44822;SDS011;51097;51.984;5.650;2023-07-20T08:00:25;2.92;;;1.90;;
44822;SDS011;51097;51.984;5.650;2023-07-20T08:02:51;3.65;;;1.70;;
44822;SDS011;51097;51.984;5.650;2023-07-20T08:05:17;2.47;;;1.98;;
44822;SDS011;51097;51.984;5.650;2023-07-20T08:07:42;2.30;;;1.98;;
44822;SDS011;51097;51.984;5.650;2023-07-20T08:10:08;2.65;;;1.75;;
44822;SDS011;51097;51.984;5.650;2023-07-20T08:12:34;2.88;;;1.48;;
44822;SDS011;51097;51.984;5.650;2023-07-20T08:15:00;2.65;;;1.73;;
44822;SDS011;51097;51.984;5.650;2023-07-20T08:17:25;2.28;;;1.85;;
44822;SDS011;51097;51.984;5.650;2023-07-20T08:19:51;2.40;;;1.42;;
44822;SDS011;51097;51.984;5.650;2023-07-20T08:22:16;1.00;;;0.90;;
44822;SDS011;51097;51.984;5.650;2023-07-20T08:24:42;2.80;;;1.20;;
44822;SDS011;51097;51.984;5.650;2023-07-20T08:27:08;3.17;;;1.13;;
44822;SDS011;51097;51.984;5.650;2023-07-20T08:29:34;1.58;;;1.10;;
44822;SDS011;51097;51.984;5.650;2023-07-20T08:32:01;1.00;;;0.90;;
44822;SDS011;51097;51.984;5.650;2023-07-20T08:34:27;1.10;;;1.00;;
44822;SDS011;51097;51.984;5.650;2023-07-20T08:36:52;2.28;;;1.20;;
44822;SDS011;51097;51.984;5.650;2023-07-20T08:39:18;2.08;;;1.52;;
44822;SDS011;51097;51.984;5.650;2023-07-20T08:41:44;3.42;;;1.30;;
44822;SDS011;51097;51.984;5.650;2023-07-20T08:44:10;1.63;;;1.42;;
44822;SDS011;51097;51.984;5.650;2023-07-20T08:46:39;1.58;;;1.10;;
44822;SDS011;51097;51.984;5.650;2023-07-20T08:49:06;1.95;;;1.52;;
44822;SDS011;51097;51.984;5.650;2023-07-20T08:51:32;1.95;;;1.10;;
44822;SDS011;51097;51.984;5.650;2023-07-20T08:53:58;4.05;;;1.20;;
44822;SDS011;51097;51.984;5.650;2023-07-20T08:56:24;2.80;;;1.20;;
44822;SDS011;51097;51.984;5.650;2023-07-20T08:58:54;1.00;;;1.00;;
44822;SDS011;51097;51.984;5.650;2023-07-20T09:01:20;1.13;;;1.07;;
44822;SDS011;51097;51.984;5.650;2023-07-20T09:03:47;2.45;;;1.23;;
44822;SDS011;51097;51.984;5.650;2023-07-20T09:06:13;1.52;;;1.40;;
44822;SDS011;51097;51.984;5.650;2023-07-20T09:08:40;2.22;;;1.42;;
44822;SDS011;51097;51.984;5.650;2023-07-20T09:11:06;3.05;;;1.05;;
44822;SDS011;51097;51.984;5.650;2023-07-20T09:13:35;1.35;;;1.00;;
44822;SDS011;51097;51.984;5.650;2023-07-20T09:16:02;2.28;;;0.98;;
44822;SDS011;51097;51.984;5.650;2023-07-20T09:18:31;1.02;;;0.82;;
44822;SDS011;51097;51.984;5.650;2023-07-20T09:20:58;2.00;;;1.10;;
44822;SDS011;51097;51.984;5.650;2023-07-20T09:23:36;2.05;;;1.40;;
44822;SDS011;51097;51.984;5.650;2023-07-20T09:26:09;1.10;;;1.10;;
44822;SDS011;51097;51.984;5.650;2023-07-20T09:28:42;1.83;;;1.38;;
44822;SDS011;51097;51.984;5.650;2023-07-20T09:31:19;1.88;;;1.50;;
44822;SDS011;51097;51.984;5.650;2023-07-20T09:33:46;2.13;;;1.15;;
44822;SDS011;51097;51.984;5.650;2023-07-20T09:36:12;2.95;;;1.02;;
44822;SDS011;51097;51.984;5.650;2023-07-20T09:38:41;2.33;;;1.00;;
44822;SDS011;51097;51.984;5.650;2023-07-20T09:41:14;0.85;;;0.82;;
44822;SDS011;51097;51.984;5.650;2023-07-20T09:43:43;2.03;;;0.95;;
44822;SDS011;51097;51.984;5.650;2023-07-20T09:46:10;1.00;;;0.90;;
44822;SDS011;51097;51.984;5.650;2023-07-20T09:48:36;1.55;;;0.90;;
44822;SDS011;51097;51.984;5.650;2023-07-20T09:51:01;1.35;;;0.98;;
44822;SDS011;51097;51.984;5.650;2023-07-20T09:53:28;1.38;;;1.00;;
44822;SDS011;51097;51.984;5.650;2023-07-20T09:55:54;0.55;;;0.55;;
44822;SDS011;51097;51.984;5.650;2023-07-20T09:58:21;1.13;;;1.02;;
44822;SDS011;51097;51.984;5.650;2023-07-20T10:00:47;2.17;;;1.00;;
44822;SDS011;51097;51.984;5.650;2023-07-20T10:03:19;1.65;;;0.70;;
44822;SDS011;51097;51.984;5.650;2023-07-20T10:05:48;2.45;;;1.10;;
44822;SDS011;51097;51.984;5.650;2023-07-20T10:08:23;0.90;;;0.90;;
44822;SDS011;51097;51.984;5.650;2023-07-20T10:10:50;1.52;;;1.20;;
44822;SDS011;51097;51.984;5.650;2023-07-20T10:13:25;2.03;;;0.80;;
44822;SDS011;51097;51.984;5.650;2023-07-20T10:16:01;3.15;;;0.90;;
44822;SDS011;51097;51.984;5.650;2023-07-20T10:18:29;1.23;;;0.85;;
44822;SDS011;51097;51.984;5.650;2023-07-20T10:20:55;1.15;;;0.90;;
44822;SDS011;51097;51.984;5.650;2023-07-20T10:23:24;2.03;;;0.63;;
44822;SDS011;51097;51.984;5.650;2023-07-20T10:25:51;0.90;;;0.80;;
44822;SDS011;51097;51.984;5.650;2023-07-20T10:28:18;2.35;;;0.95;;
44822;SDS011;51097;51.984;5.650;2023-07-20T10:30:44;1.20;;;0.60;;
44822;SDS011;51097;51.984;5.650;2023-07-20T10:33:11;0.93;;;0.80;;
44822;SDS011;51097;51.984;5.650;2023-07-20T10:35:50;1.80;;;0.77;;
44822;SDS011;51097;51.984;5.650;2023-07-20T10:41:35;1.27;;;0.93;;
44822;SDS011;51097;51.984;5.650;2023-07-20T10:44:04;0.90;;;0.70;;
44822;SDS011;51097;51.984;5.650;2023-07-20T10:46:33;0.70;;;0.70;;
44822;SDS011;51097;51.984;5.650;2023-07-20T10:49:06;1.35;;;0.93;;
44822;SDS011;51097;51.984;5.650;2023-07-20T10:51:45;2.47;;;1.00;;
44822;SDS011;51097;51.984;5.650;2023-07-20T10:56:41;0.70;;;0.60;;
44822;SDS011;51097;51.984;5.650;2023-07-20T11:02:06;1.17;;;0.70;;
44822;SDS011;51097;51.984;5.650;2023-07-20T11:04:39;1.17;;;0.77;;
44822;SDS011;51097;51.984;5.650;2023-07-20T11:07:05;1.73;;;0.90;;
44822;SDS011;51097;51.984;5.650;2023-07-20T11:09:34;0.70;;;0.60;;
44822;SDS011;51097;51.984;5.650;2023-07-20T11:12:11;2.63;;;0.85;;
44822;SDS011;51097;51.984;5.650;2023-07-20T11:14:44;1.05;;;0.68;;
44822;SDS011;51097;51.984;5.650;2023-07-20T11:17:19;1.52;;;0.50;;
44822;SDS011;51097;51.984;5.650;2023-07-20T11:19:54;2.35;;;0.70;;
44822;SDS011;51097;51.984;5.650;2023-07-20T11:22:21;1.25;;;0.50;;
44822;SDS011;51097;51.984;5.650;2023-07-20T11:24:47;1.48;;;0.90;;
44822;SDS011;51097;51.984;5.650;2023-07-20T11:27:14;0.65;;;0.63;;
44822;SDS011;51097;51.984;5.650;2023-07-20T11:29:40;1.30;;;0.82;;
44822;SDS011;51097;51.984;5.650;2023-07-20T11:32:05;0.98;;;0.80;;
44822;SDS011;51097;51.984;5.650;2023-07-20T11:34:32;1.02;;;0.90;;
44822;SDS011;51097;51.984;5.650;2023-07-20T11:36:58;1.17;;;0.52;;
44822;SDS011;51097;51.984;5.650;2023-07-20T11:39:24;1.30;;;0.90;;
44822;SDS011;51097;51.984;5.650;2023-07-20T11:41:54;2.17;;;0.98;;
44822;SDS011;51097;51.984;5.650;2023-07-20T11:44:24;1.00;;;0.90;;
44822;SDS011;51097;51.984;5.650;2023-07-20T11:47:09;1.27;;;0.95;;
44822;SDS011;51097;51.984;5.650;2023-07-20T11:49:37;0.98;;;0.82;;
44822;SDS011;51097;51.984;5.650;2023-07-20T11:52:08;0.82;;;0.70;;
44822;SDS011;51097;51.984;5.650;2023-07-20T11:54:39;1.20;;;0.90;;
44822;SDS011;51097;51.984;5.650;2023-07-20T11:57:05;0.95;;;0.60;;
44822;SDS011;51097;51.984;5.650;2023-07-20T11:59:31;1.70;;;0.60;;
44822;SDS011;51097;51.984;5.650;2023-07-20T12:02:03;1.10;;;1.00;;
44822;SDS011;51097;51.984;5.650;2023-07-20T12:04:31;1.30;;;1.20;;
44822;SDS011;51097;51.984;5.650;2023-07-20T12:06:57;2.22;;;0.90;;
44822;SDS011;51097;51.984;5.650;2023-07-20T12:09:24;1.35;;;0.70;;
44822;SDS011;51097;51.984;5.650;2023-07-20T12:11:49;1.65;;;0.70;;
44822;SDS011;51097;51.984;5.650;2023-07-20T12:14:15;1.30;;;0.60;;
44822;SDS011;51097;51.984;5.650;2023-07-20T12:16:41;1.20;;;0.43;;
44822;SDS011;51097;51.984;5.650;2023-07-20T12:19:09;0.70;;;0.70;;
44822;SDS011;51097;51.984;5.650;2023-07-20T12:21:37;2.58;;;0.88;;
44822;SDS011;51097;51.984;5.650;2023-07-20T12:24:06;2.78;;;0.82;;
44822;SDS011;51097;51.984;5.650;2023-07-20T12:26:34;1.60;;;0.82;;
44822;SDS011;51097;51.984;5.650;2023-07-20T12:29:00;1.20;;;0.55;;
44822;SDS011;51097;51.984;5.650;2023-07-20T12:31:26;0.93;;;0.60;;
44822;SDS011;51097;51.984;5.650;2023-07-20T12:33:53;0.70;;;0.60;;
44822;SDS011;51097;51.984;5.650;2023-07-20T12:36:20;0.77;;;0.40;;
44822;SDS011;51097;51.984;5.650;2023-07-20T12:38:46;0.80;;;0.77;;
44822;SDS011;51097;51.984;5.650;2023-07-20T12:41:12;2.22;;;0.60;;
44822;SDS011;51097;51.984;5.650;2023-07-20T12:43:39;0.88;;;0.50;;
44822;SDS011;51097;51.984;5.650;2023-07-20T12:46:05;0.90;;;0.85;;
44822;SDS011;51097;51.984;5.650;2023-07-20T12:48:31;1.58;;;0.75;;
44822;SDS011;51097;51.984;5.650;2023-07-20T12:50:57;1.58;;;0.90;;
44822;SDS011;51097;51.984;5.650;2023-07-20T12:53:23;1.40;;;0.60;;
44822;SDS011;51097;51.984;5.650;2023-07-20T12:55:48;0.70;;;0.60;;
44822;SDS011;51097;51.984;5.650;2023-07-20T12:58:14;1.67;;;0.88;;
44822;SDS011;51097;51.984;5.650;2023-07-20T13:00:40;0.68;;;0.40;;
44822;SDS011;51097;51.984;5.650;2023-07-20T13:03:06;2.05;;;0.80;;
44822;SDS011;51097;51.984;5.650;2023-07-20T13:05:33;2.17;;;0.50;;
44822;SDS011;51097;51.984;5.650;2023-07-20T13:08:00;0.55;;;0.43;;
44822;SDS011;51097;51.984;5.650;2023-07-20T13:10:26;1.77;;;0.70;;
44822;SDS011;51097;51.984;5.650;2023-07-20T13:12:52;2.40;;;0.60;;
44822;SDS011;51097;51.984;5.650;2023-07-20T13:15:17;0.63;;;0.60;;
44822;SDS011;51097;51.984;5.650;2023-07-20T13:17:43;3.63;;;0.75;;
44822;SDS011;51097;51.984;5.650;2023-07-20T13:20:09;1.20;;;0.65;;
44822;SDS011;51097;51.984;5.650;2023-07-20T13:22:39;0.85;;;0.60;;
44822;SDS011;51097;51.984;5.650;2023-07-20T13:25:05;0.70;;;0.70;;
44822;SDS011;51097;51.984;5.650;2023-07-20T13:27:32;1.08;;;0.57;;
44822;SDS011;51097;51.984;5.650;2023-07-20T13:29:58;1.15;;;0.68;;
44822;SDS011;51097;51.984;5.650;2023-07-20T13:32:25;1.85;;;0.60;;
44822;SDS011;51097;51.984;5.650;2023-07-20T13:34:51;1.10;;;0.60;;
44822;SDS011;51097;51.984;5.650;2023-07-20T13:37:17;0.73;;;0.60;;
44822;SDS011;51097;51.984;5.650;2023-07-20T13:39:43;0.98;;;0.52;;
44822;SDS011;51097;51.984;5.650;2023-07-20T13:42:08;0.82;;;0.70;;
44822;SDS011;51097;51.984;5.650;2023-07-20T13:44:36;2.50;;;0.70;;
44822;SDS011;51097;51.984;5.650;2023-07-20T13:47:02;1.95;;;0.80;;
44822;SDS011;51097;51.984;5.650;2023-07-20T13:49:30;1.17;;;1.00;;
44822;SDS011;51097;51.984;5.650;2023-07-20T13:51:56;2.53;;;0.93;;
44822;SDS011;51097;51.984;5.650;2023-07-20T13:54:22;1.98;;;0.80;;
44822;SDS011;51097;51.984;5.650;2023-07-20T13:56:48;2.10;;;0.68;;
44822;SDS011;51097;51.984;5.650;2023-07-20T13:59:14;2.63;;;0.80;;
44822;SDS011;51097;51.984;5.650;2023-07-20T14:01:39;0.80;;;0.80;;
44822;SDS011;51097;51.984;5.650;2023-07-20T14:04:05;2.78;;;1.00;;
44822;SDS011;51097;51.984;5.650;2023-07-20T14:06:31;2.15;;;1.13;;
44822;SDS011;51097;51.984;5.650;2023-07-20T14:08:57;1.90;;;0.73;;
44822;SDS011;51097;51.984;5.650;2023-07-20T14:11:24;2.08;;;0.75;;
44822;SDS011;51097;51.984;5.650;2023-07-20T14:13:49;1.80;;;0.90;;
44822;SDS011;51097;51.984;5.650;2023-07-20T14:16:16;1.13;;;0.70;;
44822;SDS011;51097;51.984;5.650;2023-07-20T14:18:42;1.75;;;0.52;;
44822;SDS011;51097;51.984;5.650;2023-07-20T14:21:08;1.38;;;0.80;;
44822;SDS011;51097;51.984;5.650;2023-07-20T14:23:33;0.63;;;0.55;;
44822;SDS011;51097;51.984;5.650;2023-07-20T14:26:01;1.48;;;0.73;;
44822;SDS011;51097;51.984;5.650;2023-07-20T14:28:30;1.50;;;0.60;;
44822;SDS011;51097;51.984;5.650;2023-07-20T14:30:56;0.93;;;0.70;;
44822;SDS011;51097;51.984;5.650;2023-07-20T14:33:22;0.70;;;0.70;;
44822;SDS011;51097;51.984;5.650;2023-07-20T14:35:48;0.80;;;0.80;;
44822;SDS011;51097;51.984;5.650;2023-07-20T14:38:13;0.75;;;0.60;;
44822;SDS011;51097;51.984;5.650;2023-07-20T14:40:39;1.10;;;0.65;;
44822;SDS011;51097;51.984;5.650;2023-07-20T14:43:05;1.30;;;0.75;;
44822;SDS011;51097;51.984;5.650;2023-07-20T14:45:30;1.35;;;1.00;;
44822;SDS011;51097;51.984;5.650;2023-07-20T14:47:56;0.82;;;0.82;;
44822;SDS011;51097;51.984;5.650;2023-07-20T14:50:21;2.08;;;0.77;;
44822;SDS011;51097;51.984;5.650;2023-07-20T14:52:48;1.08;;;0.70;;
44822;SDS011;51097;51.984;5.650;2023-07-20T14:55:14;2.53;;;0.80;;
44822;SDS011;51097;51.984;5.650;2023-07-20T14:57:39;1.00;;;0.70;;
44822;SDS011;51097;51.984;5.650;2023-07-20T15:00:05;1.05;;;0.80;;
44822;SDS011;51097;51.984;5.650;2023-07-20T15:02:33;1.17;;;0.75;;